sensor_id;sensor_type;location;lat;lon;timestamp;pressure;altitude;pressure_sealevel;temperature;humidity
50380;BME280;37474;59.468;18.040;2022-11-20T00:02:19;101686.44;;;-0.87;100.00
50380;BME280;37474;59.468;18.040;2022-11-20T00:04:47;101670.38;;;-0.80;100.00
50380;BME280;37474;59.468;18.040;2022-11-20T00:07:17;101651.50;;;-1.00;100.00
50380;BME280;37474;59.468;18.040;2022-11-20T00:09:47;101637.84;;;-1.09;100.00
50380;BME280;37474;59.468;18.040;2022-11-20T00:12:33;101631.06;;;-1.07;100.00
50380;BME280;37474;59.468;18.040;2022-11-20T00:15:05;101600.28;;;-1.29;100.00
50380;BME280;37474;59.468;18.040;2022-11-20T00:17:33;101668.56;;;-0.92;100.00
50380;BME280;37474;59.468;18.040;2022-11-20T00:20:04;101610.53;;;-1.23;100.00
50380;BME280;37474;59.468;18.040;2022-11-20T00:22:34;101661.84;;;-0.88;100.00
50380;BME280;37474;59.468;18.040;2022-11-20T00:25:02;101610.59;;;-1.19;100.00
50380;BME280;37474;59.468;18.040;2022-11-20T00:27:32;101654.09;;;-0.99;100.00
50380;BME280;37474;59.468;18.040;2022-11-20T00:30:03;101655.91;;;-0.89;100.00
50380;BME280;37474;59.468;18.040;2022-11-20T00:32:36;101619.97;;;-1.16;100.00
50380;BME280;37474;59.468;18.040;2022-11-20T00:35:06;101595.22;;;-1.28;100.00
50380;BME280;37474;59.468;18.040;2022-11-20T00:37:34;101603.81;;;-1.20;100.00
50380;BME280;37474;59.468;18.040;2022-11-20T00:40:05;101641.31;;;-1.02;100.00
50380;BME280;37474;59.468;18.040;2022-11-20T00:42:35;101613.19;;;-1.13;100.00
50380;BME280;37474;59.468;18.040;2022-11-20T00:45:05;101639.75;;;-0.89;100.00
50380;BME280;37474;59.468;18.040;2022-11-20T00:47:35;101631.34;;;-0.81;100.00
50380;BME280;37474;59.468;18.040;2022-11-20T00:50:06;101629.59;;;-0.88;100.00
50380;BME280;37474;59.468;18.040;2022-11-20T00:52:34;101627.91;;;-0.89;100.00
50380;BME280;37474;59.468;18.040;2022-11-20T00:55:05;101560.44;;;-1.32;100.00
50380;BME280;37474;59.468;18.040;2022-11-20T00:57:35;101614.28;;;-0.92;100.00
50380;BME280;37474;59.468;18.040;2022-11-20T01:00:05;101615.13;;;-0.93;100.00
50380;BME280;37474;59.468;18.040;2022-11-20T01:02:37;101545.91;;;-1.39;100.00
50380;BME280;37474;59.468;18.040;2022-11-20T01:05:07;101606.47;;;-1.08;100.00
50380;BME280;37474;59.468;18.040;2022-11-20T01:07:35;101609.13;;;-0.98;100.00
50380;BME280;37474;59.468;18.040;2022-11-20T01:10:06;101608.22;;;-1.05;100.00
50380;BME280;37474;59.468;18.040;2022-11-20T01:12:34;101563.78;;;-1.35;100.00
50380;BME280;37474;59.468;18.040;2022-11-20T01:15:02;101580.91;;;-1.17;100.00
50380;BME280;37474;59.468;18.040;2022-11-20T01:17:33;101576.59;;;-1.25;100.00
50380;BME280;37474;59.468;18.040;2022-11-20T01:20:04;101565.53;;;-1.29;100.00
50380;BME280;37474;59.468;18.040;2022-11-20T01:22:32;101584.25;;;-1.22;100.00
50380;BME280;37474;59.468;18.040;2022-11-20T01:25:02;101577.41;;;-1.28;100.00
50380;BME280;37474;59.468;18.040;2022-11-20T01:27:32;101590.19;;;-1.23;100.00
50380;BME280;37474;59.468;18.040;2022-11-20T01:30:00;101539.97;;;-1.43;100.00
50380;BME280;37474;59.468;18.040;2022-11-20T01:32:31;101598.88;;;-1.04;100.00
50380;BME280;37474;59.468;18.040;2022-11-20T01:35:01;101598.81;;;-1.11;100.00
50380;BME280;37474;59.468;18.040;2022-11-20T01:37:29;101584.34;;;-1.16;100.00
50380;BME280;37474;59.468;18.040;2022-11-20T01:39:59;101591.19;;;-1.08;100.00
50380;BME280;37474;59.468;18.040;2022-11-20T01:42:29;101575.88;;;-1.15;100.00
50380;BME280;37474;59.468;18.040;2022-11-20T01:48:28;101543.41;;;-1.36;100.00
50380;BME280;37474;59.468;18.040;2022-11-20T01:51:01;101568.19;;;-1.18;100.00
50380;BME280;37474;59.468;18.040;2022-11-20T01:53:34;101540.94;;;-1.30;100.00
50380;BME280;37474;59.468;18.040;2022-11-20T01:56:09;101566.59;;;-1.10;100.00
50380;BME280;37474;59.468;18.040;2022-11-20T01:58:43;101551.28;;;-1.12;100.00
50380;BME280;37474;59.468;18.040;2022-11-20T02:01:14;101527.38;;;-1.30;100.00
50380;BME280;37474;59.468;18.040;2022-11-20T02:03:46;101561.50;;;-1.10;100.00
50380;BME280;37474;59.468;18.040;2022-11-20T02:06:21;101547.78;;;-1.23;100.00
50380;BME280;37474;59.468;18.040;2022-11-20T02:08:53;101548.78;;;-1.07;100.00
50380;BME280;37474;59.468;18.040;2022-11-20T02:11:24;101546.13;;;-1.21;100.00
50380;BME280;37474;59.468;18.040;2022-11-20T02:13:53;101546.19;;;-1.13;100.00
50380;BME280;37474;59.468;18.040;2022-11-20T02:16:23;101546.16;;;-1.18;100.00
50380;BME280;37474;59.468;18.040;2022-11-20T02:18:55;101552.13;;;-1.16;100.00
50380;BME280;37474;59.468;18.040;2022-11-20T02:21:34;101541.84;;;-1.23;100.00
50380;BME280;37474;59.468;18.040;2022-11-20T02:24:14;101541.91;;;-1.19;100.00
50380;BME280;37474;59.468;18.040;2022-11-20T02:26:49;101488.16;;;-1.52;100.00
50380;BME280;37474;59.468;18.040;2022-11-20T02:29:23;101540.19;;;-1.21;100.00
50380;BME280;37474;59.468;18.040;2022-11-20T02:31:55;101526.63;;;-1.22;100.00
50380;BME280;37474;59.468;18.040;2022-11-20T02:34:25;101501.88;;;-1.38;100.00
50380;BME280;37474;59.468;18.040;2022-11-20T02:36:53;101517.19;;;-1.30;100.00
50380;BME280;37474;59.468;18.040;2022-11-20T02:39:27;101512.94;;;-1.31;100.00
50380;BME280;37474;59.468;18.040;2022-11-20T02:42:00;101514.75;;;-1.21;100.00
50380;BME280;37474;59.468;18.040;2022-11-20T02:44:30;101509.59;;;-1.27;100.00
50380;BME280;37474;59.468;18.040;2022-11-20T02:46:58;101467.00;;;-1.47;100.00
50380;BME280;37474;59.468;18.040;2022-11-20T02:49:28;101513.06;;;-1.19;100.00
50380;BME280;37474;59.468;18.040;2022-11-20T02:51:58;101479.78;;;-1.39;100.00
50380;BME280;37474;59.468;18.040;2022-11-20T02:54:28;101452.53;;;-1.54;100.00
50380;BME280;37474;59.468;18.040;2022-11-20T02:56:58;101514.75;;;-1.18;100.00
50380;BME280;37474;59.468;18.040;2022-11-20T02:59:27;101507.97;;;-1.18;100.00
50380;BME280;37474;59.468;18.040;2022-11-20T03:01:55;101492.69;;;-1.21;100.00
50380;BME280;37474;59.468;18.040;2022-11-20T03:04:25;101479.00;;;-1.34;100.00
50380;BME280;37474;59.468;18.040;2022-11-20T03:06:55;101487.50;;;-1.31;100.00
50380;BME280;37474;59.468;18.040;2022-11-20T03:09:23;101502.00;;;-1.23;100.00
50380;BME280;37474;59.468;18.040;2022-11-20T03:11:52;101482.38;;;-1.36;100.00
50380;BME280;37474;59.468;18.040;2022-11-20T03:14:22;101492.66;;;-1.25;100.00
50380;BME280;37474;59.468;18.040;2022-11-20T03:16:50;101450.84;;;-1.53;100.00
50380;BME280;37474;59.468;18.040;2022-11-20T03:19:20;101433.81;;;-1.62;100.00
50380;BME280;37474;59.468;18.040;2022-11-20T03:21:50;101435.53;;;-1.60;100.00
50380;BME280;37474;59.468;18.040;2022-11-20T03:24:18;101482.44;;;-1.30;100.00
50380;BME280;37474;59.468;18.040;2022-11-20T03:26:48;101470.50;;;-1.37;100.00
50380;BME280;37474;59.468;18.040;2022-11-20T03:29:19;101478.16;;;-1.34;100.00
50380;BME280;37474;59.468;18.040;2022-11-20T03:31:48;101480.69;;;-1.36;100.00
50380;BME280;37474;59.468;18.040;2022-11-20T03:34:18;101478.94;;;-1.40;100.00
50380;BME280;37474;59.468;18.040;2022-11-20T03:36:48;101455.19;;;-1.42;100.00
50380;BME280;37474;59.468;18.040;2022-11-20T03:39:16;101456.75;;;-1.56;100.00
50380;BME280;37474;59.468;18.040;2022-11-20T03:41:46;101432.97;;;-1.61;100.00
50380;BME280;37474;59.468;18.040;2022-11-20T03:44:16;101439.72;;;-1.66;100.00
50380;BME280;37474;59.468;18.040;2022-11-20T03:46:45;101466.16;;;-1.49;100.00
50380;BME280;37474;59.468;18.040;2022-11-20T03:49:13;101456.69;;;-1.62;100.00
50380;BME280;37474;59.468;18.040;2022-11-20T03:51:43;101390.25;;;-1.97;100.00
50380;BME280;37474;59.468;18.040;2022-11-20T03:54:10;101438.81;;;-1.71;100.00
50380;BME280;37474;59.468;18.040;2022-11-20T03:56:41;101453.28;;;-1.64;100.00
50380;BME280;37474;59.468;18.040;2022-11-20T03:59:10;101435.38;;;-1.76;100.00
50380;BME280;37474;59.468;18.040;2022-11-20T04:01:39;101442.22;;;-1.68;100.00
50380;BME280;37474;59.468;18.040;2022-11-20T04:04:17;101432.00;;;-1.74;100.00
50380;BME280;37474;59.468;18.040;2022-11-20T04:06:47;101428.59;;;-1.76;100.00
50380;BME280;37474;59.468;18.040;2022-11-20T04:09:15;101430.34;;;-1.69;100.00
50380;BME280;37474;59.468;18.040;2022-11-20T04:11:46;101431.13;;;-1.76;100.00
50380;BME280;37474;59.468;18.040;2022-11-20T04:14:16;101392.84;;;-1.94;100.00
50380;BME280;37474;59.468;18.040;2022-11-20T04:16:43;101421.91;;;-1.66;100.00
50380;BME280;37474;59.468;18.040;2022-11-20T04:19:16;101425.38;;;-1.60;100.00
50380;BME280;37474;59.468;18.040;2022-11-20T04:21:46;101427.97;;;-1.55;100.00
50380;BME280;37474;59.468;18.040;2022-11-20T04:24:14;101381.09;;;-1.83;100.00
50380;BME280;37474;59.468;18.040;2022-11-20T04:26:44;101412.72;;;-1.52;100.00
50380;BME280;37474;59.468;18.040;2022-11-20T04:29:14;101408.41;;;-1.59;100.00
50380;BME280;37474;59.468;18.040;2022-11-20T04:31:42;101413.56;;;-1.51;100.00
50380;BME280;37474;59.468;18.040;2022-11-20T04:34:11;101417.78;;;-1.55;100.00
50380;BME280;37474;59.468;18.040;2022-11-20T04:36:42;101405.19;;;-1.43;100.00
50380;BME280;37474;59.468;18.040;2022-11-20T04:39:14;101394.06;;;-1.51;100.00
50380;BME280;37474;59.468;18.040;2022-11-20T04:41:47;101395.84;;;-1.42;100.00
50380;BME280;37474;59.468;18.040;2022-11-20T04:44:17;101397.53;;;-1.44;100.00
50380;BME280;37474;59.468;18.040;2022-11-20T04:46:44;101392.41;;;-1.49;100.00
50380;BME280;37474;59.468;18.040;2022-11-20T04:49:14;101389.06;;;-1.42;100.00
50380;BME280;37474;59.468;18.040;2022-11-20T04:51:45;101349.06;;;-1.63;100.00
50380;BME280;37474;59.468;18.040;2022-11-20T04:54:13;101380.63;;;-1.38;100.00
50380;BME280;37474;59.468;18.040;2022-11-20T04:56:43;101392.47;;;-1.41;100.00
50380;BME280;37474;59.468;18.040;2022-11-20T04:59:13;101386.56;;;-1.36;100.00
50380;BME280;37474;59.468;18.040;2022-11-20T05:01:41;101331.22;;;-1.70;100.00
50380;BME280;37474;59.468;18.040;2022-11-20T05:04:11;101347.41;;;-1.59;100.00
50380;BME280;37474;59.468;18.040;2022-11-20T05:06:41;101348.16;;;-1.69;100.00
50380;BME280;37474;59.468;18.040;2022-11-20T05:09:10;101328.63;;;-1.75;100.00
50380;BME280;37474;59.468;18.040;2022-11-20T05:11:40;101353.25;;;-1.68;100.00
50380;BME280;37474;59.468;18.040;2022-11-20T05:14:10;101331.06;;;-1.84;100.00
50380;BME280;37474;59.468;18.040;2022-11-20T05:16:38;101348.16;;;-1.69;100.00
50380;BME280;37474;59.468;18.040;2022-11-20T05:19:08;101358.38;;;-1.63;100.00
50380;BME280;37474;59.468;18.040;2022-11-20T05:21:38;101327.78;;;-1.72;100.00
50380;BME280;37474;59.468;18.040;2022-11-20T05:24:07;101345.69;;;-1.60;100.00
50380;BME280;37474;59.468;18.040;2022-11-20T05:26:38;101356.63;;;-1.67;100.00
50380;BME280;37474;59.468;18.040;2022-11-20T05:29:09;101350.75;;;-1.66;100.00
50380;BME280;37474;59.468;18.040;2022-11-20T05:31:38;101308.09;;;-1.96;100.00
50380;BME280;37474;59.468;18.040;2022-11-20T05:34:11;101345.66;;;-1.62;100.00
50380;BME280;37474;59.468;18.040;2022-11-20T05:36:38;101319.34;;;-1.71;100.00
50380;BME280;37474;59.468;18.040;2022-11-20T05:39:06;101329.56;;;-1.64;100.00
50380;BME280;37474;59.468;18.040;2022-11-20T05:41:39;101293.91;;;-1.71;100.00
50380;BME280;37474;59.468;18.040;2022-11-20T05:44:10;101340.66;;;-1.54;100.00
50380;BME280;37474;59.468;18.040;2022-11-20T05:46:40;101336.44;;;-1.52;100.00
50380;BME280;37474;59.468;18.040;2022-11-20T05:49:08;101332.09;;;-1.62;100.00
50380;BME280;37474;59.468;18.040;2022-11-20T05:51:36;101305.06;;;-1.52;100.00
50380;BME280;37474;59.468;18.040;2022-11-20T05:54:08;101339.94;;;-1.36;100.00
50380;BME280;37474;59.468;18.040;2022-11-20T05:56:36;101275.19;;;-1.79;100.00
50380;BME280;37474;59.468;18.040;2022-11-20T05:59:05;101307.59;;;-1.54;100.00
50380;BME280;37474;59.468;18.040;2022-11-20T06:01:35;101342.44;;;-1.39;100.00
50380;BME280;37474;59.468;18.040;2022-11-20T06:04:03;101333.16;;;-1.36;100.00
50380;BME280;37474;59.468;18.040;2022-11-20T06:06:50;101326.38;;;-1.35;100.00
50380;BME280;37474;59.468;18.040;2022-11-20T06:09:19;101286.38;;;-1.59;100.00
50380;BME280;37474;59.468;18.040;2022-11-20T06:11:50;101319.56;;;-1.39;100.00
50380;BME280;37474;59.468;18.040;2022-11-20T06:14:19;101324.69;;;-1.38;100.00
50380;BME280;37474;59.468;18.040;2022-11-20T06:16:51;101320.44;;;-1.37;100.00
50380;BME280;37474;59.468;18.040;2022-11-20T06:19:19;101286.38;;;-1.61;100.00
50380;BME280;37474;59.468;18.040;2022-11-20T06:21:47;101308.47;;;-1.50;100.00
50380;BME280;37474;59.468;18.040;2022-11-20T06:24:19;101287.22;;;-1.60;100.00
50380;BME280;37474;59.468;18.040;2022-11-20T06:26:47;101305.16;;;-1.40;100.00
50380;BME280;37474;59.468;18.040;2022-11-20T06:29:15;101317.94;;;-1.29;100.00
50380;BME280;37474;59.468;18.040;2022-11-20T06:31:49;101315.38;;;-1.29;100.00
50380;BME280;37474;59.468;18.040;2022-11-20T06:34:19;101294.13;;;-1.41;100.00
50380;BME280;37474;59.468;18.040;2022-11-20T06:36:47;101301.00;;;-1.27;100.00
50380;BME280;37474;59.468;18.040;2022-11-20T06:39:17;101304.44;;;-1.18;100.00
50380;BME280;37474;59.468;18.040;2022-11-20T06:41:47;101289.91;;;-1.39;100.00
50380;BME280;37474;59.468;18.040;2022-11-20T06:44:22;101299.25;;;-1.35;100.00
50380;BME280;37474;59.468;18.040;2022-11-20T06:46:55;101300.06;;;-1.40;100.00
50380;BME280;37474;59.468;18.040;2022-11-20T06:49:23;101306.81;;;-1.45;100.00
50380;BME280;37474;59.468;18.040;2022-11-20T06:51:51;101301.69;;;-1.51;100.00
50380;BME280;37474;59.468;18.040;2022-11-20T06:54:23;101250.63;;;-1.79;100.00
50380;BME280;37474;59.468;18.040;2022-11-20T06:56:51;101258.34;;;-1.68;100.00
50380;BME280;37474;59.468;18.040;2022-11-20T06:59:19;101232.84;;;-1.79;100.00
50380;BME280;37474;59.468;18.040;2022-11-20T07:01:48;101275.41;;;-1.52;100.00
50380;BME280;37474;59.468;18.040;2022-11-20T07:04:17;101279.47;;;-1.74;100.00
50380;BME280;37474;59.468;18.040;2022-11-20T07:06:45;101272.75;;;-1.70;100.00
50380;BME280;37474;59.468;18.040;2022-11-20T07:09:17;101250.50;;;-1.99;100.00
50380;BME280;37474;59.468;18.040;2022-11-20T07:11:45;101286.34;;;-1.64;100.00
50380;BME280;37474;59.468;18.040;2022-11-20T07:14:13;101291.44;;;-1.64;100.00
50380;BME280;37474;59.468;18.040;2022-11-20T07:16:45;101261.75;;;-1.66;100.00
50380;BME280;37474;59.468;18.040;2022-11-20T07:19:13;101220.81;;;-2.03;100.00
50380;BME280;37474;59.468;18.040;2022-11-20T07:21:42;101278.78;;;-1.53;100.00
50380;BME280;37474;59.468;18.040;2022-11-20T07:24:12;101278.75;;;-1.56;100.00
50380;BME280;37474;59.468;18.040;2022-11-20T07:26:40;101274.59;;;-1.48;100.00
50380;BME280;37474;59.468;18.040;2022-11-20T07:29:08;101231.19;;;-1.77;100.00
50380;BME280;37474;59.468;18.040;2022-11-20T07:31:40;101257.59;;;-1.50;100.00
50380;BME280;37474;59.468;18.040;2022-11-20T07:34:07;101242.34;;;-1.52;100.00
50380;BME280;37474;59.468;18.040;2022-11-20T07:36:35;101226.22;;;-1.60;100.00
50380;BME280;37474;59.468;18.040;2022-11-20T07:39:08;101253.44;;;-1.42;100.00
50380;BME280;37474;59.468;18.040;2022-11-20T07:41:36;101255.97;;;-1.44;100.00
50380;BME280;37474;59.468;18.040;2022-11-20T07:44:04;101244.91;;;-1.46;100.00
50380;BME280;37474;59.468;18.040;2022-11-20T07:46:34;101248.41;;;-1.31;100.00
50380;BME280;37474;59.468;18.040;2022-11-20T07:49:02;101247.56;;;-1.30;100.00
50380;BME280;37474;59.468;18.040;2022-11-20T07:51:30;101249.31;;;-1.19;100.00
50380;BME280;37474;59.468;18.040;2022-11-20T07:54:02;101241.72;;;-1.08;100.00
50380;BME280;37474;59.468;18.040;2022-11-20T07:56:31;101253.59;;;-1.07;100.00
50380;BME280;37474;59.468;18.040;2022-11-20T07:58:59;101201.00;;;-1.14;100.00
50380;BME280;37474;59.468;18.040;2022-11-20T08:01:31;101242.69;;;-0.88;100.00
50380;BME280;37474;59.468;18.040;2022-11-20T08:03:59;101218.06;;;-0.86;100.00
50380;BME280;37474;59.468;18.040;2022-11-20T08:06:27;101170.50;;;-1.08;100.00
50380;BME280;37474;59.468;18.040;2022-11-20T08:08:59;101185.78;;;-1.05;100.00
50380;BME280;37474;59.468;18.040;2022-11-20T08:11:27;101213.81;;;-0.85;100.00
50380;BME280;37474;59.468;18.040;2022-11-20T08:14:17;101217.19;;;-0.94;100.00
50380;BME280;37474;59.468;18.040;2022-11-20T08:16:46;101212.94;;;-0.95;100.00
50380;BME280;37474;59.468;18.040;2022-11-20T08:19:16;101139.88;;;-1.33;100.00
50380;BME280;37474;59.468;18.040;2022-11-20T08:21:46;101177.25;;;-1.16;100.00
50380;BME280;37474;59.468;18.040;2022-11-20T08:24:14;101170.50;;;-1.05;100.00
50380;BME280;37474;59.468;18.040;2022-11-20T08:26:42;101207.88;;;-0.86;100.00
50380;BME280;37474;59.468;18.040;2022-11-20T08:29:15;101211.28;;;-0.84;100.00
50380;BME280;37474;59.468;18.040;2022-11-20T08:31:43;101173.06;;;-0.90;100.00
50380;BME280;37474;59.468;18.040;2022-11-20T08:34:11;101207.09;;;-0.63;100.00
50380;BME280;37474;59.468;18.040;2022-11-20T08:36:47;101181.59;;;-0.78;100.00
50380;BME280;37474;59.468;18.040;2022-11-20T08:39:14;101180.78;;;-0.62;100.00
50380;BME280;37474;59.468;18.040;2022-11-20T08:41:42;101155.31;;;-0.62;100.00
50380;BME280;37474;59.468;18.040;2022-11-20T08:44:12;101182.53;;;-0.38;100.00
50380;BME280;37474;59.468;18.040;2022-11-20T08:46:42;101187.63;;;-0.44;100.00
50380;BME280;37474;59.468;18.040;2022-11-20T08:49:11;101179.09;;;-0.48;100.00
50380;BME280;37474;59.468;18.040;2022-11-20T08:51:40;101189.28;;;-0.51;100.00
50380;BME280;37474;59.468;18.040;2022-11-20T08:54:08;101152.78;;;-0.61;100.00
50380;BME280;37474;59.468;18.040;2022-11-20T08:56:38;101157.03;;;-0.55;100.00
50380;BME280;37474;59.468;18.040;2022-11-20T08:59:05;101171.44;;;-0.45;100.00
50380;BME280;37474;59.468;18.040;2022-11-20T09:01:55;101177.41;;;-0.37;100.00
50380;BME280;37474;59.468;18.040;2022-11-20T09:04:27;101173.19;;;-0.33;100.00
50380;BME280;37474;59.468;18.040;2022-11-20T09:06:54;101117.09;;;-0.84;100.00
50380;BME280;37474;59.468;18.040;2022-11-20T09:09:23;101165.53;;;-0.48;100.00
50380;BME280;37474;59.468;18.040;2022-11-20T09:11:55;101161.28;;;-0.48;100.00
50380;BME280;37474;59.468;18.040;2022-11-20T09:14:23;101158.72;;;-0.51;100.00
50380;BME280;37474;59.468;18.040;2022-11-20T09:17:00;101149.38;;;-0.40;100.00
50380;BME280;37474;59.468;18.040;2022-11-20T09:19:28;101155.34;;;-0.38;100.00
50380;BME280;37474;59.468;18.040;2022-11-20T09:22:06;101107.78;;;-0.54;100.00
50380;BME280;37474;59.468;18.040;2022-11-20T09:24:35;101151.94;;;-0.31;100.00
50380;BME280;37474;59.468;18.040;2022-11-20T09:27:04;101154.47;;;-0.23;100.00
50380;BME280;37474;59.468;18.040;2022-11-20T09:29:35;101113.75;;;-0.49;100.00
50380;BME280;37474;59.468;18.040;2022-11-20T09:32:06;101143.44;;;-0.54;100.00
50380;BME280;37474;59.468;18.040;2022-11-20T09:34:34;101138.34;;;-0.48;100.00
50380;BME280;37474;59.468;18.040;2022-11-20T09:37:04;101130.72;;;-0.52;100.00
50380;BME280;37474;59.468;18.040;2022-11-20T09:39:34;101129.88;;;-0.48;100.00
50380;BME280;37474;59.468;18.040;2022-11-20T09:42:20;101131.53;;;-0.23;100.00
50380;BME280;37474;59.468;18.040;2022-11-20T09:45:09;101132.41;;;-0.15;100.00
50380;BME280;37474;59.468;18.040;2022-11-20T09:47:52;101123.91;;;-0.18;100.00
50380;BME280;37474;59.468;18.040;2022-11-20T09:50:31;101082.31;;;-0.48;100.00
50380;BME280;37474;59.468;18.040;2022-11-20T09:53:12;101115.44;;;-0.27;100.00
50380;BME280;37474;59.468;18.040;2022-11-20T09:55:40;101082.31;;;-0.39;100.00
50380;BME280;37474;59.468;18.040;2022-11-20T09:58:16;101041.56;;;-0.72;100.00
50380;BME280;37474;59.468;18.040;2022-11-20T10:00:48;101112.88;;;-0.30;100.00
50380;BME280;37474;59.468;18.040;2022-11-20T10:03:29;101074.69;;;-0.48;100.00
50380;BME280;37474;59.468;18.040;2022-11-20T10:06:10;101096.75;;;-0.32;100.00
50380;BME280;37474;59.468;18.040;2022-11-20T10:08:43;101083.13;;;-0.24;100.00
50380;BME280;37474;59.468;18.040;2022-11-20T10:11:18;101085.69;;;-0.35;100.00
50380;BME280;37474;59.468;18.040;2022-11-20T10:13:57;101064.50;;;-0.59;100.00
50380;BME280;37474;59.468;18.040;2022-11-20T10:16:37;101018.69;;;-0.83;100.00
50380;BME280;37474;59.468;18.040;2022-11-20T10:19:23;101051.75;;;-0.51;100.00
50380;BME280;37474;59.468;18.040;2022-11-20T10:22:01;101067.03;;;-0.42;100.00
50380;BME280;37474;59.468;18.040;2022-11-20T10:24:43;101061.94;;;-0.48;100.00
50380;BME280;37474;59.468;18.040;2022-11-20T10:27:39;101041.56;;;-0.46;100.00
50380;BME280;37474;59.468;18.040;2022-11-20T10:30:09;101055.13;;;-0.46;100.00
50380;BME280;37474;59.468;18.040;2022-11-20T10:32:40;101055.13;;;-0.37;100.00
50380;BME280;37474;59.468;18.040;2022-11-20T10:35:20;101049.19;;;-0.25;100.00
50380;BME280;37474;59.468;18.040;2022-11-20T10:37:55;101054.25;;;-0.17;100.00
50380;BME280;37474;59.468;18.040;2022-11-20T10:40:30;101043.19;;;-0.10;100.00
50380;BME280;37474;59.468;18.040;2022-11-20T10:43:02;101046.63;;;-0.27;100.00
50380;BME280;37474;59.468;18.040;2022-11-20T10:45:43;101042.38;;;-0.24;100.00
50380;BME280;37474;59.468;18.040;2022-11-20T10:48:16;101041.53;;;-0.28;100.00
50380;BME280;37474;59.468;18.040;2022-11-20T10:50:55;101052.56;;;-0.23;100.00
50380;BME280;37474;59.468;18.040;2022-11-20T10:53:42;101043.25;;;-0.27;100.00
50380;BME280;37474;59.468;18.040;2022-11-20T10:56:19;101050.88;;;-0.24;100.00
50380;BME280;37474;59.468;18.040;2022-11-20T10:59:00;101033.88;;;-0.28;100.00
50380;BME280;37474;59.468;18.040;2022-11-20T11:01:30;100994.00;;;-0.46;100.00
50380;BME280;37474;59.468;18.040;2022-11-20T11:04:23;101025.34;;;-0.12;100.00
50380;BME280;37474;59.468;18.040;2022-11-20T11:06:58;101024.53;;;-0.20;100.00
50380;BME280;37474;59.468;18.040;2022-11-20T11:09:33;100957.53;;;-0.57;100.00
50380;BME280;37474;59.468;18.040;2022-11-20T11:12:06;101016.91;;;-0.29;100.00
50380;BME280;37474;59.468;18.040;2022-11-20T11:14:48;101007.53;;;-0.18;100.00
50380;BME280;37474;59.468;18.040;2022-11-20T11:17:28;101003.31;;;-0.20;100.00
50380;BME280;37474;59.468;18.040;2022-11-20T11:20:00;100998.22;;;-0.22;100.00
50380;BME280;37474;59.468;18.040;2022-11-20T11:22:34;100996.47;;;-0.17;100.00
50380;BME280;37474;59.468;18.040;2022-11-20T11:25:20;100964.25;;;-0.30;100.00
50380;BME280;37474;59.468;18.040;2022-11-20T11:27:50;100987.94;;;-0.02;100.00
50380;BME280;37474;59.468;18.040;2022-11-20T11:30:19;100980.28;;;-0.01;100.00
50380;BME280;37474;59.468;18.040;2022-11-20T11:32:48;100945.47;;;-0.06;100.00
50380;BME280;37474;59.468;18.040;2022-11-20T11:35:27;100950.59;;;-0.12;100.00
50380;BME280;37474;59.468;18.040;2022-11-20T11:38:04;100962.47;;;-0.04;100.00
50380;BME280;37474;59.468;18.040;2022-11-20T11:40:35;100962.47;;;-0.05;100.00
50380;BME280;37474;59.468;18.040;2022-11-20T11:43:07;100959.09;;;-0.09;100.00
50380;BME280;37474;59.468;18.040;2022-11-20T11:46:24;100931.16;;;-0.33;100.00
50380;BME280;37474;59.468;18.040;2022-11-20T11:49:13;100960.75;;;-0.06;100.00
50380;BME280;37474;59.468;18.040;2022-11-20T11:51:52;100937.88;;;-0.15;100.00
50380;BME280;37474;59.468;18.040;2022-11-20T11:54:28;100944.69;;;-0.20;100.00
50380;BME280;37474;59.468;18.040;2022-11-20T11:57:00;100942.97;;;-0.18;100.00
50380;BME280;37474;59.468;18.040;2022-11-20T11:59:41;100892.16;;;-0.52;100.00
50380;BME280;37474;59.468;18.040;2022-11-20T12:02:23;100943.03;;;-0.29;100.00
50380;BME280;37474;59.468;18.040;2022-11-20T12:04:54;100938.78;;;-0.29;100.00
50380;BME280;37474;59.468;18.040;2022-11-20T12:07:35;100940.47;;;-0.21;100.00
50380;BME280;37474;59.468;18.040;2022-11-20T12:10:20;100942.19;;;-0.34;100.00
50380;BME280;37474;59.468;18.040;2022-11-20T12:12:53;100929.41;;;-0.23;100.00
50380;BME280;37474;59.468;18.040;2022-11-20T12:15:29;100870.97;;;-0.59;100.00
50380;BME280;37474;59.468;18.040;2022-11-20T12:18:00;100916.72;;;-0.33;100.00
50380;BME280;37474;59.468;18.040;2022-11-20T12:20:40;100923.44;;;-0.13;100.00
50380;BME280;37474;59.468;18.040;2022-11-20T12:23:18;100920.94;;;-0.29;100.00
50380;BME280;37474;59.468;18.040;2022-11-20T12:25:54;100917.53;;;-0.24;100.00
50380;BME280;37474;59.468;18.040;2022-11-20T12:28:34;100895.53;;;-0.38;100.00
50380;BME280;37474;59.468;18.040;2022-11-20T12:31:18;100915.06;;;-0.47;100.00
50380;BME280;37474;59.468;18.040;2022-11-20T12:33:57;100904.03;;;-0.46;100.00
50380;BME280;37474;59.468;18.040;2022-11-20T12:36:38;100877.75;;;-0.62;100.00
50380;BME280;37474;59.468;18.040;2022-11-20T12:39:25;100898.97;;;-0.54;100.00
50380;BME280;37474;59.468;18.040;2022-11-20T12:42:16;100882.88;;;-0.67;100.00
50380;BME280;37474;59.468;18.040;2022-11-20T12:45:12;100896.41;;;-0.56;100.00
50380;BME280;37474;59.468;18.040;2022-11-20T12:50:51;100855.75;;;-0.77;100.00
50380;BME280;37474;59.468;18.040;2022-11-20T12:53:44;100836.28;;;-0.83;100.00
50380;BME280;37474;59.468;18.040;2022-11-20T12:56:24;100882.84;;;-0.59;100.00
50380;BME280;37474;59.468;18.040;2022-11-20T12:59:09;100860.03;;;-0.93;100.00
50380;BME280;37474;59.468;18.040;2022-11-20T13:01:47;100882.91;;;-0.71;100.00
50380;BME280;37474;59.468;18.040;2022-11-20T13:04:27;100873.56;;;-0.71;100.00